createdAt,value
2019-04-03T00:00:05.266Z,9.10
2019-04-03T00:02:34.913Z,9.10
2019-04-03T00:05:05.123Z,9.10
2019-04-03T00:07:35.853Z,9.10
2019-04-03T00:10:07.418Z,9.10
2019-04-03T00:12:36.605Z,9.10
2019-04-03T00:15:07.969Z,9.10
2019-04-03T00:17:36.765Z,9.10
2019-04-03T00:20:07.808Z,9.10
2019-04-03T00:22:38.285Z,9.10
2019-04-03T00:25:07.779Z,9.20
2019-04-03T00:27:36.279Z,9.20
2019-04-03T00:30:07.581Z,9.30
2019-04-03T00:32:37.099Z,9.40
2019-04-03T00:35:07.611Z,9.40
2019-04-03T00:37:36.959Z,9.50
2019-04-03T00:40:07.476Z,9.60
2019-04-03T00:42:35.940Z,9.70
2019-04-03T00:45:06.876Z,9.80
2019-04-03T00:47:35.299Z,9.90
2019-04-03T00:50:26.891Z,10.00
2019-04-03T00:52:57.084Z,10.20
2019-04-03T00:55:26.605Z,10.20
2019-04-03T00:57:56.437Z,10.40
2019-04-03T01:00:26.462Z,10.30
2019-04-03T01:02:58.108Z,10.30
2019-04-03T01:05:28.125Z,10.30
2019-04-03T01:07:59.184Z,10.20
2019-04-03T01:10:29.308Z,10.30
2019-04-03T01:13:01.358Z,10.30
2019-04-03T01:15:29.799Z,10.40
2019-04-03T01:17:58.971Z,10.40
2019-04-03T01:20:28.404Z,10.40
2019-04-03T01:22:56.831Z,10.30
2019-04-03T01:25:27.463Z,10.30
2019-04-03T01:27:57.076Z,10.30
2019-04-03T01:30:25.544Z,10.30
2019-04-03T01:32:54.022Z,10.20
2019-04-03T01:35:22.483Z,10.20
2019-04-03T01:37:51.220Z,10.10
2019-04-03T01:40:20.868Z,10.10
2019-04-03T01:42:52.151Z,10.00
2019-04-03T01:45:19.704Z,10.00
2019-04-03T01:47:48.145Z,10.00
2019-04-03T01:50:16.828Z,10.00
2019-04-03T01:52:45.274Z,10.00
2019-04-03T01:55:13.700Z,10.00
2019-04-03T01:57:42.140Z,10.00
2019-04-03T02:00:11.324Z,10.10
2019-04-03T02:02:39.763Z,10.00
2019-04-03T02:05:12.122Z,10.10
2019-04-03T02:07:39.853Z,10.10
2019-04-03T02:10:20.370Z,10.10
2019-04-03T02:12:50.648Z,10.10
2019-04-03T02:15:21.581Z,10.10
2019-04-03T02:17:50.453Z,10.10
2019-04-03T02:20:19.229Z,10.00
2019-04-03T02:23:07.248Z,10.10
2019-04-03T02:25:36.038Z,10.20
2019-04-03T02:28:06.503Z,10.20
2019-04-03T02:30:35.116Z,10.20
2019-04-03T02:33:03.552Z,10.20
2019-04-03T02:35:32.830Z,10.10
2019-04-03T02:38:01.478Z,10.10
2019-04-03T02:40:32.522Z,10.10
2019-04-03T02:43:00.234Z,10.00
2019-04-03T02:45:28.936Z,10.00
2019-04-03T02:47:57.732Z,10.00
2019-04-03T02:50:48.552Z,10.00
2019-04-03T02:53:18.645Z,10.00
2019-04-03T02:55:47.388Z,9.90
2019-04-03T02:58:16.275Z,9.90
2019-04-03T03:00:44.860Z,9.90
2019-04-03T03:03:16.084Z,9.90
2019-04-03T03:05:43.451Z,9.80
2019-04-03T03:08:13.143Z,9.80
2019-04-03T03:10:42.957Z,9.70
2019-04-03T03:13:11.878Z,9.70
2019-04-03T03:15:43.874Z,9.70
2019-04-03T03:18:12.528Z,9.70
2019-04-03T03:21:02.179Z,9.70
2019-04-03T03:23:30.686Z,9.70
2019-04-03T03:25:59.466Z,9.70
2019-04-03T03:28:28.398Z,9.60
2019-04-03T03:31:02.678Z,9.60
2019-04-03T03:33:35.589Z,9.60
2019-04-03T03:35:59.661Z,9.60
2019-04-03T03:38:29.774Z,9.60
2019-04-03T03:40:58.826Z,9.60
2019-04-03T03:43:27.895Z,9.50
2019-04-03T03:45:56.871Z,9.50
2019-04-03T03:48:25.853Z,9.50
2019-04-03T03:50:57.237Z,9.40
2019-04-03T03:53:24.835Z,9.40
2019-04-03T03:55:56.895Z,9.40
2019-04-03T03:58:23.918Z,9.30
2019-04-03T04:01:11.902Z,9.30
2019-04-03T04:03:42.176Z,9.30
2019-04-03T04:06:12.305Z,9.30
2019-04-03T04:08:44.287Z,9.20
2019-04-03T04:11:12.254Z,9.20
2019-04-03T04:13:41.154Z,9.20
2019-04-03T04:16:09.641Z,9.10
2019-04-03T04:18:38.543Z,9.10
2019-04-03T04:21:09.399Z,9.20
2019-04-03T04:23:37.704Z,9.20
2019-04-03T04:26:06.821Z,9.30
2019-04-03T04:28:39.216Z,9.30
2019-04-03T04:31:07.589Z,9.30
2019-04-03T04:33:36.343Z,9.30
2019-04-03T04:36:06.055Z,9.30
2019-04-03T04:38:34.491Z,9.30
2019-04-03T04:41:02.918Z,9.30
2019-04-03T04:43:31.623Z,9.30
2019-04-03T04:46:01.023Z,9.30
2019-04-03T04:48:29.461Z,9.30
2019-04-03T04:50:57.883Z,9.20
2019-04-03T04:53:29.364Z,9.30
2019-04-03T04:55:56.829Z,9.20
2019-04-03T04:58:25.618Z,9.20
2019-04-03T05:00:54.540Z,9.20
2019-04-03T05:03:23.004Z,9.20
2019-04-03T05:05:51.519Z,9.20
2019-04-03T05:08:20.040Z,9.30
2019-04-03T05:10:49.316Z,9.30
2019-04-03T05:13:17.891Z,9.30
2019-04-03T05:15:46.324Z,9.30
2019-04-03T05:18:15.945Z,9.40
2019-04-03T05:20:44.374Z,9.50
2019-04-03T05:23:13.004Z,9.50
2019-04-03T05:25:41.687Z,9.50
2019-04-03T05:28:10.492Z,9.50
2019-04-03T05:30:38.914Z,9.60
2019-04-03T05:33:07.556Z,9.60
2019-04-03T05:35:37.664Z,9.60
2019-04-03T05:38:06.807Z,9.70
2019-04-03T05:40:35.444Z,9.70
2019-04-03T05:43:04.271Z,9.70
2019-04-03T05:45:34.692Z,9.70
2019-04-03T05:48:03.109Z,9.80
2019-04-03T05:50:35.583Z,9.80
2019-04-03T05:53:05.651Z,9.80
2019-04-03T05:55:33.111Z,9.80
2019-04-03T05:58:01.608Z,9.90
2019-04-03T06:00:30.550Z,9.90
2019-04-03T06:02:59.039Z,9.90
2019-04-03T06:05:28.467Z,10.00
2019-04-03T06:07:57.372Z,9.90
2019-04-03T06:10:27.660Z,10.00
2019-04-03T06:12:56.437Z,10.00
2019-04-03T06:15:25.034Z,10.10
2019-04-03T06:17:55.364Z,10.10
2019-04-03T06:20:24.190Z,10.10
2019-04-03T06:22:52.986Z,10.10
2019-04-03T06:25:21.915Z,10.20
2019-04-03T06:27:50.484Z,10.20
2019-04-03T06:30:18.981Z,10.20
2019-04-03T06:32:47.692Z,10.20
2019-04-03T06:35:16.202Z,10.30
2019-04-03T06:37:45.022Z,10.40
2019-04-03T06:40:15.830Z,10.50
2019-04-03T06:42:45.652Z,10.50
2019-04-03T06:45:16.086Z,10.50
2019-04-03T06:47:45.156Z,10.50
2019-04-03T06:50:16.924Z,10.60
2019-04-03T06:52:44.889Z,10.70
2019-04-03T06:55:13.352Z,10.70
2019-04-03T06:57:41.941Z,10.70
2019-04-03T07:00:10.856Z,10.70
2019-04-03T07:02:39.282Z,10.70
2019-04-03T07:05:09.587Z,10.70
2019-04-03T07:07:38.434Z,10.70
2019-04-03T07:10:09.240Z,10.70
2019-04-03T07:12:37.733Z,10.70
2019-04-03T07:15:07.770Z,10.60
2019-04-03T07:17:36.280Z,10.60
2019-04-03T07:20:13.560Z,10.60
2019-04-03T07:22:36.318Z,10.60
2019-04-03T07:25:07.702Z,10.50
2019-04-03T07:27:41.261Z,10.60
2019-04-03T07:30:09.291Z,10.50
2019-04-03T07:32:37.923Z,10.60
2019-04-03T07:35:09.742Z,10.60
2019-04-03T07:37:37.401Z,10.60
2019-04-03T07:40:07.257Z,10.60
2019-04-03T07:42:36.129Z,10.60
2019-04-03T07:45:08.994Z,10.50
2019-04-03T07:47:37.743Z,10.50
2019-04-03T07:50:11.166Z,10.40
2019-04-03T07:52:39.225Z,10.40
2019-04-03T07:55:08.487Z,10.40
2019-04-03T07:57:37.495Z,10.40
2019-04-03T08:00:09.447Z,10.40
2019-04-03T08:02:57.208Z,10.40
2019-04-03T08:05:25.648Z,10.50
2019-04-03T08:07:54.098Z,10.50
2019-04-03T08:10:22.903Z,10.60
2019-04-03T08:12:51.339Z,10.60
2019-04-03T08:15:19.784Z,10.70
2019-04-03T08:17:49.898Z,10.70
2019-04-03T08:20:20.066Z,10.70
2019-04-03T08:22:48.964Z,10.70
2019-04-03T08:25:17.409Z,10.70
2019-04-03T08:27:46.098Z,10.70
2019-04-03T08:30:15.746Z,10.70
2019-04-03T08:32:45.662Z,10.70
2019-04-03T08:35:22.415Z,10.70
2019-04-03T08:37:45.657Z,10.70
2019-04-03T08:40:15.127Z,10.70
2019-04-03T08:42:43.551Z,10.70
2019-04-03T08:45:12.686Z,10.60
2019-04-03T08:47:44.351Z,10.70
2019-04-03T08:50:12.263Z,10.70
2019-04-03T08:52:40.910Z,10.70
2019-04-03T08:55:12.876Z,10.70
2019-04-03T08:57:41.299Z,10.80
2019-04-03T09:00:10.791Z,10.80
2019-04-03T09:02:42.493Z,10.80
2019-04-03T09:05:13.182Z,10.90
2019-04-03T09:07:40.384Z,10.90
2019-04-03T09:10:10.189Z,10.90
2019-04-03T09:12:38.935Z,10.90
2019-04-03T09:15:08.495Z,10.90
2019-04-03T09:17:37.211Z,10.90
2019-04-03T09:20:06.178Z,11.00
2019-04-03T09:22:34.684Z,11.00
2019-04-03T09:25:04.198Z,11.00
2019-04-03T09:27:32.682Z,11.00
2019-04-03T09:30:01.123Z,11.00
2019-04-03T09:32:30.083Z,10.90
2019-04-03T09:35:00.543Z,10.90
2019-04-03T09:37:29.036Z,10.90
2019-04-03T09:39:57.831Z,10.80
2019-04-03T09:42:26.263Z,10.70
2019-04-03T09:44:56.233Z,10.70
2019-04-03T09:47:25.143Z,10.70
2019-04-03T09:49:53.595Z,10.70
2019-04-03T09:52:23.603Z,10.70
2019-04-03T09:54:52.215Z,10.70
2019-04-03T09:57:20.969Z,10.70
2019-04-03T09:59:49.816Z,10.80
2019-04-03T10:02:19.559Z,10.80
2019-04-03T10:04:48.404Z,10.80
2019-04-03T10:07:16.838Z,10.80
2019-04-03T10:09:45.285Z,10.80
2019-04-03T10:12:14.092Z,10.90
2019-04-03T10:14:42.775Z,11.00
2019-04-03T10:17:11.609Z,10.90
2019-04-03T10:19:40.764Z,11.00
2019-04-03T10:22:10.119Z,11.10
2019-04-03T10:24:38.724Z,11.10
2019-04-03T10:27:10.460Z,11.20
2019-04-03T10:29:37.991Z,11.30
2019-04-03T10:32:07.610Z,11.40
2019-04-03T10:34:36.227Z,11.40
2019-04-03T10:37:04.961Z,11.50
2019-04-03T10:39:33.766Z,11.50
2019-04-03T10:42:03.878Z,11.50
2019-04-03T10:44:32.409Z,11.50
2019-04-03T10:47:00.832Z,11.50
2019-04-03T10:49:30.041Z,11.60
2019-04-03T10:51:59.797Z,11.60
2019-04-03T10:54:28.303Z,11.60
2019-04-03T10:56:56.728Z,11.60
2019-04-03T10:59:26.110Z,11.70
2019-04-03T11:01:55.123Z,11.80
2019-04-03T11:04:23.959Z,12.00
2019-04-03T11:06:52.443Z,12.00
2019-04-03T11:09:21.183Z,12.10
2019-04-03T11:11:50.928Z,12.00
2019-04-03T11:14:19.712Z,12.00
2019-04-03T11:16:48.389Z,11.90
2019-04-03T11:19:19.430Z,11.80
2019-04-03T11:21:47.243Z,11.70
2019-04-03T11:24:15.694Z,11.70
2019-04-03T11:26:44.117Z,11.70
2019-04-03T11:29:12.769Z,11.80
2019-04-03T11:31:42.651Z,11.90
2019-04-03T11:34:11.776Z,11.90
2019-04-03T11:36:40.211Z,12.00
2019-04-03T11:39:14.794Z,12.00
2019-04-03T11:41:40.319Z,12.00
2019-04-03T11:44:08.999Z,12.00
2019-04-03T11:46:37.684Z,12.00
2019-04-03T11:49:06.606Z,12.00
2019-04-03T11:51:35.172Z,12.10
2019-04-03T11:54:06.765Z,12.20
2019-04-03T11:56:34.127Z,12.20
2019-04-03T11:59:02.938Z,12.20
2019-04-03T12:01:31.544Z,12.20
2019-04-03T12:03:59.980Z,12.20
2019-04-03T12:06:28.499Z,12.30
2019-04-03T12:08:59.737Z,12.20
2019-04-03T12:11:27.443Z,12.30
2019-04-03T12:13:56.175Z,12.30
2019-04-03T12:16:25.997Z,12.30
2019-04-03T12:18:55.085Z,12.30
2019-04-03T12:21:23.867Z,12.40
2019-04-03T12:23:52.296Z,12.40
2019-04-03T12:26:21.322Z,12.40
2019-04-03T12:28:50.167Z,12.40
2019-04-03T12:31:20.472Z,12.40
2019-04-03T12:33:56.319Z,12.30
2019-04-03T12:36:19.444Z,12.30
2019-04-03T12:38:47.872Z,12.30
2019-04-03T12:41:18.251Z,12.40
2019-04-03T12:43:49.060Z,12.40
2019-04-03T12:46:18.892Z,12.40
2019-04-03T12:48:50.879Z,12.40
2019-04-03T12:51:20.410Z,12.50
2019-04-03T12:53:49.372Z,12.50
2019-04-03T12:56:18.774Z,12.60
2019-04-03T12:58:47.456Z,12.70
2019-04-03T13:01:18.002Z,12.80
2019-04-03T13:03:46.187Z,12.80
2019-04-03T13:06:14.920Z,12.80
2019-04-03T13:08:43.847Z,12.90
2019-04-03T13:11:12.431Z,12.90
2019-04-03T13:13:41.252Z,12.90
2019-04-03T13:16:10.957Z,12.80
2019-04-03T13:18:39.940Z,12.70
2019-04-03T13:21:11.299Z,12.70
2019-04-03T13:23:40.123Z,12.60
2019-04-03T13:26:08.609Z,12.50
2019-04-03T13:28:39.787Z,12.40
2019-04-03T13:31:07.599Z,12.40
2019-04-03T13:33:38.206Z,12.40
2019-04-03T13:36:07.321Z,12.40
2019-04-03T13:38:36.958Z,12.40
2019-04-03T13:41:07.947Z,12.40
2019-04-03T13:43:37.834Z,12.50
2019-04-03T13:46:06.767Z,12.40
2019-04-03T13:48:35.225Z,12.50
2019-04-03T13:51:04.088Z,12.50
2019-04-03T13:53:33.011Z,12.60
2019-04-03T13:56:01.554Z,12.60
2019-04-03T13:58:30.577Z,12.70
2019-04-03T14:01:02.799Z,12.70
2019-04-03T14:03:29.256Z,12.80
2019-04-03T14:05:58.167Z,12.90
2019-04-03T14:08:27.015Z,13.00
2019-04-03T14:10:57.248Z,13.10
2019-04-03T14:13:26.803Z,13.20
2019-04-03T14:15:56.298Z,13.50
2019-04-03T14:18:25.042Z,13.80
2019-04-03T14:20:54.020Z,14.20
2019-04-03T14:23:23.731Z,14.80
2019-04-03T14:26:03.042Z,15.20
2019-04-03T14:28:22.329Z,15.60
2019-04-03T14:30:50.748Z,16.00
2019-04-03T14:33:19.739Z,16.20
2019-04-03T14:35:52.997Z,16.20
2019-04-03T14:38:18.912Z,16.20
2019-04-03T14:40:47.373Z,16.10
2019-04-03T14:43:16.466Z,16.00
2019-04-03T14:45:46.090Z,16.00
2019-04-03T14:48:17.232Z,16.00
2019-04-03T14:50:45.813Z,16.10
2019-04-03T14:53:14.856Z,16.00
2019-04-03T14:55:48.173Z,15.80
2019-04-03T14:58:14.519Z,16.00
2019-04-03T15:00:43.368Z,16.20
2019-04-03T15:03:11.875Z,16.10
2019-04-03T15:05:44.226Z,15.80
2019-04-03T15:08:10.783Z,15.70
2019-04-03T15:10:39.459Z,15.70
2019-04-03T15:13:08.039Z,15.60
2019-04-03T15:15:37.052Z,15.40
2019-04-03T15:18:09.323Z,15.50
2019-04-03T15:20:36.119Z,15.70
2019-04-03T15:23:05.589Z,16.00
2019-04-03T15:25:35.059Z,16.40
2019-04-03T15:28:03.851Z,16.50
2019-04-03T15:30:32.898Z,16.20
2019-04-03T15:33:01.473Z,16.10
2019-04-03T15:35:32.079Z,16.30
2019-04-03T15:38:00.555Z,16.60
2019-04-03T15:40:29.821Z,16.80
2019-04-03T15:42:58.487Z,17.50
2019-04-03T15:45:26.909Z,17.70
2019-04-03T15:47:57.540Z,17.70
2019-04-03T15:50:27.423Z,17.80
2019-04-03T15:52:55.983Z,17.30
2019-04-03T15:55:25.424Z,16.90
2019-04-03T15:57:54.078Z,16.70
2019-04-03T16:00:23.752Z,16.20
2019-04-03T16:02:52.411Z,16.00
2019-04-03T16:05:21.544Z,15.90
2019-04-03T16:07:50.475Z,15.70
2019-04-03T16:10:20.337Z,15.60
2019-04-03T16:12:49.103Z,15.60
2019-04-03T16:15:18.193Z,15.60
2019-04-03T16:17:47.416Z,15.60
2019-04-03T16:20:17.607Z,15.60
2019-04-03T16:22:46.308Z,15.50
2019-04-03T16:25:16.766Z,15.40
2019-04-03T16:27:45.335Z,15.20
2019-04-03T16:30:16.146Z,15.10
2019-04-03T16:32:44.665Z,15.00
2019-04-03T16:35:15.239Z,15.00
2019-04-03T16:37:43.839Z,14.90
2019-04-03T16:40:12.993Z,14.90
2019-04-03T16:42:41.724Z,14.90
2019-04-03T16:45:11.193Z,14.80
2019-04-03T16:47:40.180Z,14.70
2019-04-03T16:50:10.244Z,14.70
2019-04-03T16:52:38.814Z,14.50
2019-04-03T16:55:09.295Z,14.50
2019-04-03T16:57:38.255Z,14.40
2019-04-03T17:00:09.973Z,14.30
2019-04-03T17:02:38.907Z,14.20
2019-04-03T17:05:10.425Z,14.10
2019-04-03T17:07:38.622Z,14.10
2019-04-03T17:10:10.482Z,14.00
2019-04-03T17:12:39.351Z,14.00
2019-04-03T17:15:09.743Z,13.90
2019-04-03T17:17:38.943Z,13.80
2019-04-03T17:20:09.668Z,13.60
2019-04-03T17:22:40.762Z,13.60
2019-04-03T17:25:09.815Z,13.50
2019-04-03T17:27:38.256Z,13.40
2019-04-03T17:30:09.253Z,13.40
2019-04-03T17:32:38.677Z,13.40
2019-04-03T17:35:08.732Z,13.40
2019-04-03T17:37:37.432Z,13.30
2019-04-03T17:40:09.225Z,13.30
2019-04-03T17:42:39.341Z,13.20
2019-04-03T17:45:08.683Z,13.20
2019-04-03T17:47:37.168Z,13.10
2019-04-03T17:50:07.116Z,13.10
2019-04-03T17:52:36.357Z,13.00
2019-04-03T17:55:10.876Z,12.90
2019-04-03T17:57:38.958Z,12.80
2019-04-03T18:00:20.974Z,12.70
2019-04-03T18:02:49.555Z,12.60
2019-04-03T18:05:18.428Z,12.50
2019-04-03T18:07:47.115Z,12.50
2019-04-03T18:10:16.336Z,12.30
2019-04-03T18:12:45.899Z,12.20
2019-04-03T18:15:15.171Z,12.10
2019-04-03T18:17:43.923Z,12.00
2019-04-03T18:20:13.467Z,12.00
2019-04-03T18:22:42.263Z,12.00
2019-04-03T18:25:10.864Z,11.90
2019-04-03T18:27:39.606Z,11.80
2019-04-03T18:30:11.779Z,11.80
2019-04-03T18:32:40.469Z,11.80
2019-04-03T18:35:10.035Z,11.70
2019-04-03T18:37:40.829Z,11.60
2019-04-03T18:40:13.974Z,11.70
2019-04-03T18:42:42.028Z,11.60
2019-04-03T18:45:24.196Z,11.60
2019-04-03T18:47:45.840Z,11.60
2019-04-03T18:50:13.634Z,11.50
2019-04-03T18:52:42.214Z,11.50
2019-04-03T18:55:13.922Z,11.50
2019-04-03T18:57:41.283Z,11.50
2019-04-03T19:00:11.269Z,11.40
2019-04-03T19:02:39.706Z,11.40
2019-04-03T19:05:10.931Z,11.40
2019-04-03T19:07:39.531Z,11.30
2019-04-03T19:10:09.464Z,11.30
2019-04-03T19:12:38.093Z,11.30
2019-04-03T19:15:07.887Z,11.20
2019-04-03T19:17:36.800Z,11.20
2019-04-03T19:20:11.628Z,11.10
2019-04-03T19:22:38.506Z,11.10
2019-04-03T19:25:09.051Z,11.00
2019-04-03T19:27:37.744Z,10.90
2019-04-03T19:30:08.610Z,10.90
2019-04-03T19:32:37.234Z,10.90
2019-04-03T19:35:09.531Z,10.80
2019-04-03T19:37:37.691Z,10.80
2019-04-03T19:40:13.472Z,10.80
2019-04-03T19:42:43.754Z,10.80
2019-04-03T19:45:13.127Z,10.80
2019-04-03T19:47:41.704Z,10.60
2019-04-03T19:50:10.588Z,10.60
2019-04-03T19:52:41.484Z,10.60
2019-04-03T19:55:10.215Z,10.50
2019-04-03T19:57:38.644Z,10.50
2019-04-03T20:00:09.054Z,10.50
2019-04-03T20:02:46.220Z,10.40
2019-04-03T20:05:14.647Z,10.40
2019-04-03T20:07:43.420Z,10.40
2019-04-03T20:10:12.112Z,10.40
2019-04-03T20:12:40.657Z,10.40
2019-04-03T20:15:09.743Z,10.30
2019-04-03T20:17:38.173Z,10.30
2019-04-03T20:20:07.675Z,10.20
2019-04-03T20:22:38.182Z,10.10
2019-04-03T20:25:07.568Z,10.20
2019-04-03T20:27:36.161Z,10.20
2019-04-03T20:30:10.300Z,10.20
2019-04-03T20:32:39.948Z,10.20
2019-04-03T20:35:11.113Z,10.20
2019-04-03T20:37:40.184Z,10.20
2019-04-03T20:40:09.511Z,10.20
2019-04-03T20:42:40.664Z,10.30
2019-04-03T20:45:09.399Z,10.20
2019-04-03T20:47:37.925Z,10.20
2019-04-03T20:50:07.693Z,10.20
2019-04-03T20:52:39.292Z,10.20
2019-04-03T20:55:10.775Z,10.20
2019-04-03T20:57:39.607Z,10.20
2019-04-03T21:00:13.103Z,10.20
2019-04-03T21:02:42.302Z,10.20
2019-04-03T21:05:10.791Z,10.20
2019-04-03T21:07:39.219Z,10.30
2019-04-03T21:10:08.295Z,10.20
2019-04-03T21:12:37.074Z,10.20
2019-04-03T21:15:08.562Z,10.20
2019-04-03T21:17:37.852Z,10.30
2019-04-03T21:20:06.633Z,10.40
2019-04-03T21:22:35.423Z,10.50
2019-04-03T21:25:05.977Z,10.60
2019-04-03T21:27:34.831Z,10.60
2019-04-03T21:30:04.699Z,10.70
2019-04-03T21:32:33.127Z,10.70
2019-04-03T21:35:03.910Z,10.80
2019-04-03T21:37:31.715Z,10.80
2019-04-03T21:40:03.225Z,10.80
2019-04-03T21:42:30.299Z,10.80
2019-04-03T21:44:58.738Z,10.80
2019-04-03T21:47:27.411Z,10.80
2019-04-03T21:50:07.686Z,10.70
2019-04-03T21:52:36.371Z,10.70
2019-04-03T21:55:43.181Z,10.70
2019-04-03T21:58:11.617Z,10.80
2019-04-03T22:00:58.634Z,10.80
2019-04-03T22:03:27.252Z,10.90
2019-04-03T22:05:56.522Z,10.80
2019-04-03T22:08:27.008Z,10.50
2019-04-03T22:10:55.571Z,10.60
2019-04-03T22:13:24.044Z,10.70
2019-04-03T22:15:52.807Z,10.70
2019-04-03T22:18:23.511Z,10.60
2019-04-03T22:20:51.387Z,10.40
2019-04-03T22:23:20.099Z,10.00
2019-04-03T22:25:48.536Z,9.80
2019-04-03T22:28:17.047Z,9.50
2019-04-03T22:30:45.468Z,9.30
2019-04-03T22:33:14.257Z,9.20
2019-04-03T22:35:42.683Z,9.00
2019-04-03T22:38:11.428Z,8.80
2019-04-03T22:40:40.743Z,8.60
2019-04-03T22:43:10.032Z,8.30
2019-04-03T22:45:38.471Z,8.10
2019-04-03T22:48:07.218Z,7.90
2019-04-03T22:50:35.881Z,7.70
2019-04-03T22:53:04.443Z,7.60
2019-04-03T22:55:33.186Z,7.50
2019-04-03T22:58:01.966Z,7.40
2019-04-03T23:00:30.760Z,7.30
2019-04-03T23:03:02.552Z,7.20
2019-04-03T23:05:29.610Z,7.20
2019-04-03T23:07:58.363Z,7.10
2019-04-03T23:10:27.973Z,7.10
2019-04-03T23:12:56.951Z,7.00
2019-04-03T23:15:25.383Z,6.90
2019-04-03T23:17:54.149Z,6.90
2019-04-03T23:20:23.499Z,6.90
2019-04-03T23:22:52.244Z,6.90
2019-04-03T23:25:20.683Z,6.90
2019-04-03T23:27:49.420Z,6.90
2019-04-03T23:30:18.112Z,6.80
2019-04-03T23:32:46.630Z,6.80
2019-04-03T23:35:15.427Z,6.70
2019-04-03T23:37:44.179Z,6.70
2019-04-03T23:40:13.202Z,6.60
2019-04-03T23:42:41.970Z,6.70
2019-04-03T23:45:11.043Z,6.60
2019-04-03T23:47:40.622Z,6.60
2019-04-03T23:50:09.204Z,6.60
2019-04-03T23:52:37.958Z,6.50
2019-04-03T23:55:07.152Z,6.50
2019-04-03T23:57:35.932Z,6.40
